createdAt,value
2022-09-26T00:04:23.654Z,47.13
2022-09-26T00:09:29.239Z,48.13
2022-09-26T00:14:35.223Z,49.05
2022-09-26T00:19:38.571Z,47.95
2022-09-26T00:24:41.862Z,52.70
2022-09-26T00:29:47.128Z,50.92
2022-09-26T00:34:51.123Z,51.08
2022-09-26T00:39:54.652Z,51.28
2022-09-26T00:45:02.805Z,50.08
2022-09-26T00:50:13.450Z,47.80
2022-09-26T00:55:20.780Z,44.17
2022-09-26T01:00:25.549Z,44.63
2022-09-26T01:05:29.629Z,43.47
2022-09-26T01:10:35.422Z,40.85
2022-09-26T01:15:40.162Z,44.00
2022-09-26T01:20:53.029Z,39.25
2022-09-26T01:26:30.227Z,40.08
2022-09-26T01:31:43.756Z,40.13
2022-09-26T01:37:03.320Z,40.28
2022-09-26T01:42:18.091Z,40.83
2022-09-26T01:47:28.761Z,40.65
2022-09-26T01:52:38.142Z,39.17
2022-09-26T01:57:48.602Z,40.40
2022-09-26T02:02:57.237Z,40.75
2022-09-26T02:08:06.552Z,41.53
2022-09-26T02:13:16.041Z,41.75
2022-09-26T02:18:24.883Z,41.53
2022-09-26T02:23:28.302Z,40.47
2022-09-26T02:28:32.066Z,43.13
2022-09-26T02:33:38.169Z,38.13
2022-09-26T02:38:42.120Z,35.90
2022-09-26T02:44:26.318Z,36.67
2022-09-26T02:49:50.912Z,37.03
2022-09-26T02:55:04.152Z,38.03
2022-09-26T03:00:12.089Z,38.72
2022-09-26T03:05:21.999Z,37.03
2022-09-26T03:10:28.457Z,35.90
2022-09-26T03:15:35.186Z,37.33
2022-09-26T03:20:40.942Z,35.30
2022-09-26T03:25:45.000Z,36.20
2022-09-26T03:30:50.995Z,37.60
2022-09-26T03:36:07.517Z,34.17
2022-09-26T03:41:12.304Z,33.50
2022-09-26T03:46:21.145Z,36.30
2022-09-26T03:51:26.637Z,35.72
2022-09-26T03:56:30.307Z,35.17
2022-09-26T04:01:34.110Z,36.30
2022-09-26T04:06:39.427Z,44.30
2022-09-26T04:11:43.256Z,40.13
2022-09-26T04:16:47.143Z,40.78
2022-09-26T04:22:08.366Z,41.53
2022-09-26T04:27:12.299Z,41.63
2022-09-26T04:32:15.985Z,43.42
2022-09-26T04:37:38.203Z,43.42
2022-09-26T04:42:42.732Z,43.75
2022-09-26T04:47:46.931Z,45.30
2022-09-26T04:53:05.327Z,46.80
2022-09-26T04:58:10.492Z,44.78
2022-09-26T05:03:14.758Z,48.70
2022-09-26T05:08:19.792Z,47.15
2022-09-26T05:13:24.074Z,47.65
2022-09-26T05:18:28.201Z,44.08
2022-09-26T05:23:50.688Z,43.88
2022-09-26T05:28:56.484Z,45.67
2022-09-26T05:34:05.786Z,40.05
2022-09-26T05:39:31.444Z,41.13
2022-09-26T05:44:35.076Z,41.70
2022-09-26T05:49:40.437Z,41.88
2022-09-26T05:54:48.735Z,44.35
2022-09-26T06:00:14.284Z,43.58
2022-09-26T06:05:23.733Z,43.67
2022-09-26T06:10:50.525Z,44.45
2022-09-26T06:15:55.153Z,44.15
2022-09-26T06:20:58.862Z,43.53
2022-09-26T06:26:08.527Z,40.80
2022-09-26T06:31:13.000Z,41.28
2022-09-26T06:36:35.988Z,40.55
2022-09-26T06:41:40.766Z,40.13
2022-09-26T06:47:02.540Z,37.75
2022-09-26T06:52:12.065Z,38.93
2022-09-26T06:57:17.773Z,37.35
2022-09-26T07:02:21.594Z,39.40
2022-09-26T07:08:03.958Z,38.50
2022-09-26T07:13:11.111Z,38.17
2022-09-26T07:18:14.936Z,41.08
2022-09-26T07:23:36.602Z,38.80
2022-09-26T07:28:41.491Z,38.55
2022-09-26T07:33:44.972Z,39.08
2022-09-26T07:38:49.589Z,35.80
2022-09-26T07:49:38.939Z,34.20
2022-09-26T07:54:45.388Z,30.08
2022-09-26T08:00:06.057Z,30.08
2022-09-26T08:05:25.634Z,29.88
2022-09-26T08:10:29.565Z,30.73
2022-09-26T08:16:06.093Z,30.27
2022-09-26T08:21:14.358Z,31.27
2022-09-26T08:26:23.937Z,28.45
2022-09-26T08:31:35.229Z,28.73
2022-09-26T08:36:38.922Z,27.40
2022-09-26T08:42:28.832Z,26.02
2022-09-26T08:48:08.138Z,25.33
2022-09-26T08:53:23.758Z,26.48
2022-09-26T08:58:38.742Z,27.27
2022-09-26T09:03:52.752Z,30.48
2022-09-26T09:08:58.262Z,28.10
2022-09-26T09:14:24.372Z,28.67
2022-09-26T09:19:48.938Z,25.27
2022-09-26T09:25:24.756Z,28.40
2022-09-26T09:30:37.098Z,26.77
2022-09-26T09:36:11.893Z,26.98
2022-09-26T09:41:52.164Z,28.27
2022-09-26T09:46:57.545Z,25.33
2022-09-26T09:52:15.143Z,22.70
2022-09-26T09:57:42.668Z,21.60
2022-09-26T10:02:53.217Z,18.65
2022-09-26T10:08:22.610Z,17.30
2022-09-26T10:13:46.277Z,16.88
2022-09-26T10:19:07.217Z,17.90
2022-09-26T10:24:27.988Z,16.65
2022-09-26T10:29:38.411Z,18.40
2022-09-26T10:34:42.436Z,17.25
2022-09-26T10:40:11.815Z,16.98
2022-09-26T10:45:20.432Z,17.25
2022-09-26T10:51:02.022Z,13.95
2022-09-26T10:56:26.394Z,13.57
2022-09-26T11:01:33.653Z,14.38
2022-09-26T11:06:44.049Z,13.52
2022-09-26T11:12:23.955Z,12.77
2022-09-26T11:17:47.397Z,11.60
2022-09-26T11:23:00.692Z,10.63
2022-09-26T11:28:12.712Z,8.20
2022-09-26T11:33:36.233Z,5.53
2022-09-26T11:38:59.464Z,5.70
2022-09-26T11:44:23.729Z,5.60
2022-09-26T11:50:09.206Z,4.85
2022-09-26T11:55:51.436Z,6.30
2022-09-26T12:01:01.614Z,5.75
2022-09-26T12:06:20.088Z,5.78
2022-09-26T12:11:34.106Z,5.55
2022-09-26T12:16:49.702Z,5.13
2022-09-26T12:22:19.179Z,5.38
2022-09-26T12:27:26.585Z,4.13
2022-09-26T12:32:56.689Z,4.03
2022-09-26T12:38:25.055Z,4.53
2022-09-26T12:43:49.031Z,4.90
2022-09-26T12:49:12.108Z,4.20
2022-09-26T12:54:45.941Z,4.35
2022-09-26T13:00:16.734Z,4.10
2022-09-26T13:06:08.373Z,4.25
2022-09-26T13:11:22.860Z,3.88
2022-09-26T13:16:38.625Z,4.53
2022-09-26T13:21:59.477Z,5.53
2022-09-26T13:27:13.345Z,5.00
2022-09-26T13:32:23.053Z,4.65
2022-09-26T13:37:39.173Z,5.70
2022-09-26T13:43:07.551Z,5.53
2022-09-26T13:48:42.994Z,7.20
2022-09-26T13:54:06.074Z,8.55
2022-09-26T13:59:30.766Z,6.78
2022-09-26T14:04:46.005Z,7.60
2022-09-26T14:09:59.100Z,7.85
2022-09-26T14:15:22.795Z,8.75
2022-09-26T14:20:29.823Z,8.82
2022-09-26T14:25:56.744Z,7.78
2022-09-26T14:31:12.460Z,9.90
2022-09-26T14:36:26.108Z,9.10
2022-09-26T14:41:34.719Z,10.32
2022-09-26T14:46:38.821Z,9.95
2022-09-26T14:51:49.638Z,10.57
2022-09-26T14:57:08.118Z,10.07
2022-09-26T15:02:21.605Z,10.40
2022-09-26T15:07:26.670Z,12.90
2022-09-26T15:12:39.969Z,15.65
2022-09-26T15:17:49.488Z,14.43
2022-09-26T15:22:57.337Z,13.65
2022-09-26T15:28:02.870Z,12.35
2022-09-26T15:33:07.501Z,9.23
2022-09-26T15:38:14.095Z,6.90
2022-09-26T15:43:21.525Z,7.75
2022-09-26T15:48:38.727Z,7.38
2022-09-26T15:53:46.809Z,5.82
2022-09-26T15:58:54.057Z,7.00
2022-09-26T16:03:59.655Z,6.63
2022-09-26T16:09:09.149Z,7.30
2022-09-26T16:14:34.283Z,8.30
2022-09-26T16:19:47.298Z,12.05
2022-09-26T16:24:52.301Z,10.68
2022-09-26T16:30:04.697Z,11.18
2022-09-26T16:35:19.756Z,6.65
2022-09-26T16:40:23.359Z,6.85
2022-09-26T16:45:28.441Z,11.02
2022-09-26T16:50:36.862Z,10.40
2022-09-26T16:55:47.300Z,13.55
2022-09-26T17:01:10.223Z,15.98
2022-09-26T17:06:43.015Z,36.55
2022-09-26T17:11:48.521Z,33.17
2022-09-26T17:16:55.505Z,34.05
2022-09-26T17:22:00.532Z,33.28
2022-09-26T17:27:07.140Z,92.72
2022-09-26T17:32:15.158Z,123.88
2022-09-26T17:37:22.094Z,65.00
2022-09-26T17:42:25.715Z,68.32
2022-09-26T17:47:31.786Z,70.50
2022-09-26T17:52:36.852Z,58.30
2022-09-26T17:57:41.832Z,51.45
2022-09-26T18:02:56.327Z,44.88
2022-09-26T18:08:05.593Z,41.75
2022-09-26T18:13:17.082Z,40.10
2022-09-26T18:18:42.209Z,38.03
2022-09-26T18:24:09.383Z,35.72
2022-09-26T18:29:15.543Z,35.83
2022-09-26T18:34:44.723Z,52.38
2022-09-26T18:40:03.866Z,59.72
2022-09-26T18:45:20.541Z,54.28
2022-09-26T18:50:36.355Z,57.42
2022-09-26T18:55:58.851Z,54.38
2022-09-26T19:01:15.349Z,49.25
2022-09-26T19:06:23.713Z,39.53
2022-09-26T19:11:28.495Z,38.90
2022-09-26T19:16:32.001Z,39.47
2022-09-26T19:21:39.403Z,38.03
2022-09-26T19:26:44.535Z,31.70
2022-09-26T19:31:48.007Z,39.83
2022-09-26T19:36:53.943Z,42.90
2022-09-26T19:41:57.575Z,46.58
2022-09-26T19:47:03.113Z,38.50
2022-09-26T19:52:16.240Z,34.85
2022-09-26T20:02:32.629Z,37.28
2022-09-26T20:07:36.264Z,34.75
2022-09-26T20:12:39.696Z,44.38
2022-09-26T20:17:46.686Z,30.75
2022-09-26T20:22:51.141Z,30.05
2022-09-26T20:27:55.963Z,31.25
2022-09-26T20:33:01.121Z,44.10
2022-09-26T20:38:10.263Z,26.00
2022-09-26T20:43:18.735Z,27.60
2022-09-26T20:48:26.671Z,29.80
2022-09-26T20:53:36.773Z,30.17
2022-09-26T20:58:42.309Z,26.65
2022-09-26T21:03:49.926Z,26.30
2022-09-26T21:08:53.434Z,26.15
2022-09-26T21:13:59.872Z,29.88
2022-09-26T21:19:05.529Z,30.90
2022-09-26T21:24:18.070Z,30.45
2022-09-26T21:29:31.472Z,23.65
2022-09-26T21:34:38.905Z,23.10
2022-09-26T21:39:45.919Z,22.80
2022-09-26T21:44:54.910Z,23.55
2022-09-26T21:50:13.427Z,22.50
2022-09-26T21:55:29.782Z,23.20
2022-09-26T22:00:35.322Z,24.75
2022-09-26T22:05:41.853Z,24.33
2022-09-26T22:10:46.307Z,29.65
2022-09-26T22:15:52.742Z,35.30
2022-09-26T22:20:57.593Z,33.45
2022-09-26T22:26:01.304Z,36.10
2022-09-26T22:31:05.943Z,35.60
2022-09-26T22:36:11.062Z,35.58
2022-09-26T22:41:25.837Z,36.50
2022-09-26T22:46:34.300Z,38.40
2022-09-26T22:51:39.878Z,40.08
2022-09-26T22:56:43.335Z,42.45
2022-09-26T23:01:47.090Z,40.83
2022-09-26T23:06:52.883Z,41.50
2022-09-26T23:11:56.503Z,39.67
2022-09-26T23:16:59.917Z,40.22
2022-09-26T23:22:04.871Z,40.42
2022-09-26T23:27:08.649Z,40.33
2022-09-26T23:32:12.084Z,41.15
2022-09-26T23:37:16.743Z,41.38
2022-09-26T23:42:20.053Z,41.35
2022-09-26T23:47:23.440Z,40.30
2022-09-26T23:52:28.168Z,40.53
2022-09-26T23:57:31.464Z,36.97
